Time,TemperatureF,DewpointF,PressureIn,WindDirection,WindDirectionDegrees,WindSpeedMPH,WindSpeedGustMPH,Humidity,HourlyPrecipIn,Conditions,Clouds,dailyrainin,SoftwareType,DateUTC
2013-08-12 00:04:00,66.9,66.0,29.99,SSW,205,0.0,8.0,97,0.00,,,0.00,Wunderground v.1.15,2013-08-12 05:04:00,
2013-08-12 00:10:00,66.8,65.9,29.99,SE,133,0.0,8.0,97,0.00,,,0.00,Wunderground v.1.15,2013-08-12 05:10:00,
2013-08-12 00:16:00,66.8,65.9,29.99,ESE,110,0.0,8.0,97,0.00,,,0.00,Wunderground v.1.15,2013-08-12 05:16:00,
2013-08-12 00:22:00,66.8,65.9,29.99,SE,126,0.0,8.0,97,0.00,,,0.00,Wunderground v.1.15,2013-08-12 05:22:00,
2013-08-12 00:28:00,66.7,65.8,29.98,ESE,119,0.0,8.0,97,0.00,,,0.00,Wunderground v.1.15,2013-08-12 05:28:00,
2013-08-12 00:34:00,66.7,65.8,29.98,ESE,119,0.0,8.0,97,0.00,,,0.00,Wunderground v.1.15,2013-08-12 05:34:00,
2013-08-12 00:40:00,66.7,65.8,29.98,SE,129,0.0,8.0,97,0.00,,,0.00,Wunderground v.1.15,2013-08-12 05:40:00,
2013-08-12 00:46:00,66.7,65.8,29.98,SE,126,0.0,8.0,97,0.00,,,0.00,Wunderground v.1.15,2013-08-12 05:46:00,
2013-08-12 00:52:00,66.8,65.9,29.98,ESE,117,0.0,8.0,97,0.00,,,0.00,Wunderground v.1.15,2013-08-12 05:52:00,
2013-08-12 00:58:00,66.7,65.8,29.99,East,86,0.0,8.0,97,0.00,,,0.00,Wunderground v.1.15,2013-08-12 05:58:00,
2013-08-12 01:04:00,66.8,65.9,29.99,East,86,0.0,8.0,97,0.00,,,0.00,Wunderground v.1.15,2013-08-12 06:04:00,
2013-08-12 01:10:00,66.8,65.9,29.99,East,86,0.0,8.0,97,0.00,,,0.00,Wunderground v.1.15,2013-08-12 06:10:00,
2013-08-12 01:16:00,66.8,65.9,29.99,NE,56,0.0,8.0,97,0.00,,,0.00,Wunderground v.1.15,2013-08-12 06:16:00,
2013-08-12 01:22:00,66.8,65.9,29.99,NE,56,1.0,8.0,97,0.00,,,0.00,Wunderground v.1.15,2013-08-12 06:22:00,
2013-08-12 01:28:00,66.7,65.8,29.98,ENE,70,0.0,8.0,97,0.00,,,0.00,Wunderground v.1.15,2013-08-12 06:28:00,
2013-08-12 01:34:00,66.6,65.7,29.98,East,85,0.0,8.0,97,0.00,,,0.00,Wunderground v.1.15,2013-08-12 06:34:00,
2013-08-12 01:40:00,66.5,65.6,29.98,East,85,0.0,8.0,97,0.00,,,0.00,Wunderground v.1.15,2013-08-12 06:40:00,
2013-08-12 01:46:00,66.4,65.5,29.98,East,101,0.0,8.0,97,0.00,,,0.00,Wunderground v.1.15,2013-08-12 06:46:00,
2013-08-12 01:52:00,66.5,65.6,29.98,WSW,242,1.0,8.0,97,0.00,,,0.00,Wunderground v.1.15,2013-08-12 06:52:00,
2013-08-12 01:58:00,66.4,65.5,29.98,SSE,155,1.0,8.0,97,0.00,,,0.00,Wunderground v.1.15,2013-08-12 06:58:00,
2013-08-12 02:04:00,66.4,65.5,29.98,SW,228,1.0,8.0,97,0.00,,,0.00,Wunderground v.1.15,2013-08-12 07:04:00,
2013-08-12 02:10:00,66.4,65.8,29.98,SSE,151,0.0,8.0,98,0.00,,,0.00,Wunderground v.1.15,2013-08-12 07:10:00,
2013-08-12 02:16:00,66.3,65.7,29.98,SSE,155,0.0,8.0,98,0.00,,,0.00,Wunderground v.1.15,2013-08-12 07:16:00,
2013-08-12 02:22:00,66.2,65.6,29.98,SE,143,0.0,8.0,98,0.00,,,0.00,Wunderground v.1.15,2013-08-12 07:22:00,
2013-08-12 02:28:00,66.1,65.2,29.98,SSE,157,0.0,8.0,97,0.00,,,0.00,Wunderground v.1.15,2013-08-12 07:28:00,
2013-08-12 02:34:00,66.1,65.5,29.98,SSE,152,0.0,8.0,98,0.00,,,0.00,Wunderground v.1.15,2013-08-12 07:34:00,
2013-08-12 02:40:00,66.1,65.5,29.98,SSE,167,0.0,8.0,98,0.00,,,0.00,Wunderground v.1.15,2013-08-12 07:40:00,
2013-08-12 02:46:00,66.0,65.4,29.98,South,190,0.0,8.0,98,0.00,,,0.00,Wunderground v.1.15,2013-08-12 07:46:00,
2013-08-12 02:52:00,65.9,65.3,29.98,South,190,0.0,8.0,98,0.00,,,0.00,Wunderground v.1.15,2013-08-12 07:52:00,
2013-08-12 02:58:00,65.8,65.2,29.97,South,190,0.0,8.0,98,0.00,,,0.00,Wunderground v.1.15,2013-08-12 07:58:00,
2013-08-12 03:04:00,65.8,65.2,29.97,South,191,0.0,8.0,98,0.00,,,0.00,Wunderground v.1.15,2013-08-12 08:04:00,
2013-08-12 03:10:00,65.7,65.1,29.97,South,190,0.0,8.0,98,0.00,,,0.00,Wunderground v.1.15,2013-08-12 08:10:00,
2013-08-12 03:16:00,65.6,65.0,29.96,SE,141,0.0,8.0,98,0.00,,,0.00,Wunderground v.1.15,2013-08-12 08:16:00,
2013-08-12 03:22:00,65.6,65.0,29.96,SE,146,0.0,8.0,98,0.00,,,0.00,Wunderground v.1.15,2013-08-12 08:22:00,
2013-08-12 03:28:00,65.5,64.9,29.96,SE,146,0.0,8.0,98,0.00,,,0.00,Wunderground v.1.15,2013-08-12 08:28:00,
2013-08-12 03:34:00,65.4,64.8,29.97,SE,146,0.0,8.0,98,0.00,,,0.00,Wunderground v.1.15,2013-08-12 08:34:00,
2013-08-12 03:40:00,65.2,64.6,29.96,SE,146,0.0,8.0,98,0.00,,,0.00,Wunderground v.1.15,2013-08-12 08:40:00,
2013-08-12 03:46:00,65.3,64.7,29.96,SE,146,0.0,8.0,98,0.00,,,0.00,Wunderground v.1.15,2013-08-12 08:46:00,
2013-08-12 03:52:00,65.2,64.6,29.97,SE,146,0.0,8.0,98,0.00,,,0.00,Wunderground v.1.15,2013-08-12 08:52:00,
2013-08-12 03:58:00,65.2,64.6,29.97,SE,146,0.0,8.0,98,0.00,,,0.00,Wunderground v.1.15,2013-08-12 08:58:00,
2013-08-12 04:04:00,65.2,64.6,29.97,SE,146,0.0,8.0,98,0.00,,,0.00,Wunderground v.1.15,2013-08-12 09:04:00,
2013-08-12 04:10:00,65.2,64.6,29.97,SW,214,0.0,8.0,98,0.00,,,0.00,Wunderground v.1.15,2013-08-12 09:10:00,
2013-08-12 04:16:00,65.2,64.6,29.97,SW,214,0.0,8.0,98,0.00,,,0.00,Wunderground v.1.15,2013-08-12 09:16:00,
2013-08-12 04:22:00,65.2,64.6,29.96,SW,215,0.0,8.0,98,0.00,,,0.00,Wunderground v.1.15,2013-08-12 09:22:00,
2013-08-12 04:28:00,65.3,64.7,29.96,WSW,256,0.0,8.0,98,0.00,,,0.00,Wunderground v.1.15,2013-08-12 09:28:00,
2013-08-12 04:34:00,65.3,64.7,29.97,WSW,256,0.0,8.0,98,0.00,,,0.00,Wunderground v.1.15,2013-08-12 09:34:00,
2013-08-12 04:40:00,65.4,64.8,29.97,WSW,256,0.0,8.0,98,0.00,,,0.00,Wunderground v.1.15,2013-08-12 09:40:00,
2013-08-12 04:46:00,65.4,64.8,29.97,West,275,0.0,8.0,98,0.00,,,0.00,Wunderground v.1.15,2013-08-12 09:46:00,
2013-08-12 04:52:00,65.5,64.9,29.97,West,271,0.0,8.0,98,0.00,,,0.00,Wunderground v.1.15,2013-08-12 09:52:00,
2013-08-12 04:58:00,65.5,64.9,29.96,West,266,0.0,8.0,98,0.00,,,0.00,Wunderground v.1.15,2013-08-12 09:58:00,
2013-08-12 05:04:00,65.4,64.8,29.96,West,262,0.0,8.0,98,0.00,,,0.00,Wunderground v.1.15,2013-08-12 10:04:00,
2013-08-12 05:10:00,65.4,64.8,29.97,WNW,284,1.0,1.0,98,0.00,,,0.00,Wunderground v.1.15,2013-08-12 10:10:00,
2013-08-12 05:16:00,65.4,64.8,29.97,WNW,284,0.0,8.0,98,0.00,,,0.00,Wunderground v.1.15,2013-08-12 10:16:00,
2013-08-12 05:22:00,65.4,64.8,29.97,West,274,0.0,8.0,98,0.00,,,0.00,Wunderground v.1.15,2013-08-12 10:22:00,
2013-08-12 05:28:00,65.4,64.8,29.97,West,277,0.0,8.0,98,0.00,,,0.00,Wunderground v.1.15,2013-08-12 10:28:00,
2013-08-12 05:34:00,65.4,64.8,29.96,West,280,0.0,8.0,98,0.00,,,0.00,Wunderground v.1.15,2013-08-12 10:34:00,
2013-08-12 05:40:00,65.4,64.8,29.97,West,280,0.0,8.0,98,0.00,,,0.00,Wunderground v.1.15,2013-08-12 10:40:00,
2013-08-12 05:46:00,65.4,64.8,29.97,West,277,0.0,8.0,98,0.00,,,0.00,Wunderground v.1.15,2013-08-12 10:46:00,
2013-08-12 05:52:00,65.4,64.8,29.96,WSW,245,0.0,8.0,98,0.00,,,0.00,Wunderground v.1.15,2013-08-12 10:52:00,
2013-08-12 05:58:00,65.4,64.8,29.96,WSW,256,0.0,8.0,98,0.00,,,0.00,Wunderground v.1.15,2013-08-12 10:58:00,
2013-08-12 06:04:00,65.5,64.9,29.96,WSW,242,0.0,8.0,98,0.00,,,0.00,Wunderground v.1.15,2013-08-12 11:04:00,
2013-08-12 06:10:00,65.4,64.8,29.95,WSW,242,0.0,8.0,98,0.00,,,0.00,Wunderground v.1.15,2013-08-12 11:10:00,
2013-08-12 06:16:00,65.4,64.8,29.96,NNE,15,0.0,8.0,98,0.00,,,0.00,Wunderground v.1.15,2013-08-12 11:16:00,
2013-08-12 06:22:00,65.4,64.8,29.96,WNW,288,0.0,8.0,98,0.00,,,0.00,Wunderground v.1.15,2013-08-12 11:22:00,
2013-08-12 06:28:00,65.3,64.7,29.96,WSW,242,0.0,8.0,98,0.00,,,0.00,Wunderground v.1.15,2013-08-12 11:28:00,
2013-08-12 06:34:00,65.2,64.6,29.96,West,280,0.0,8.0,98,0.00,,,0.00,Wunderground v.1.15,2013-08-12 11:34:00,
2013-08-12 06:40:00,65.2,64.6,29.97,West,278,0.0,8.0,98,0.00,,,0.00,Wunderground v.1.15,2013-08-12 11:40:00,
2013-08-12 06:46:00,65.2,64.6,29.97,WSW,238,0.0,8.0,98,0.00,,,0.00,Wunderground v.1.15,2013-08-12 11:46:00,
2013-08-12 06:52:00,65.2,64.6,29.97,West,261,0.0,8.0,98,0.00,,,0.00,Wunderground v.1.15,2013-08-12 11:52:00,
2013-08-12 06:58:00,65.0,64.4,29.97,NW,313,1.0,8.0,98,0.00,,,0.00,Wunderground v.1.15,2013-08-12 11:58:00,
2013-08-12 07:04:00,64.9,64.3,29.97,ESE,114,1.0,8.0,98,0.00,,,0.00,Wunderground v.1.15,2013-08-12 12:04:00,
2013-08-12 07:10:00,64.8,64.2,29.97,West,263,1.0,1.0,98,0.00,,,0.00,Wunderground v.1.15,2013-08-12 12:10:00,
2013-08-12 07:16:00,64.7,64.1,29.97,NW,315,0.0,8.0,98,0.00,,,0.00,Wunderground v.1.15,2013-08-12 12:16:00,
2013-08-12 07:22:00,64.7,64.1,29.97,ENE,60,1.0,8.0,98,0.00,,,0.00,Wunderground v.1.15,2013-08-12 12:22:00,
2013-08-12 07:28:00,64.7,64.1,29.97,WNW,302,1.0,8.0,98,0.00,,,0.00,Wunderground v.1.15,2013-08-12 12:28:00,
2013-08-12 07:34:00,64.7,64.1,29.97,NNW,343,1.0,8.0,98,0.00,,,0.00,Wunderground v.1.15,2013-08-12 12:34:00,
2013-08-12 07:40:00,64.9,64.3,29.97,WNW,296,1.0,1.0,98,0.00,,,0.00,Wunderground v.1.15,2013-08-12 12:40:00,
2013-08-12 07:46:00,65.0,64.4,29.98,SE,142,0.0,8.0,98,0.00,,,0.00,Wunderground v.1.15,2013-08-12 12:46:00,
2013-08-12 07:52:00,65.0,64.4,29.98,East,89,0.0,8.0,98,0.00,,,0.00,Wunderground v.1.15,2013-08-12 12:52:00,
2013-08-12 07:58:00,65.1,64.5,29.98,ENE,74,0.0,8.0,98,0.00,,,0.00,Wunderground v.1.15,2013-08-12 12:58:00,
2013-08-12 08:04:00,65.1,64.5,29.99,WNW,287,1.0,8.0,98,0.00,,,0.00,Wunderground v.1.15,2013-08-12 13:04:00,
2013-08-12 08:10:00,65.1,64.5,29.98,NE,51,1.0,8.0,98,0.00,,,0.00,Wunderground v.1.15,2013-08-12 13:10:00,
2013-08-12 08:16:00,65.2,64.6,29.97,NE,47,1.0,8.0,98,0.00,,,0.00,Wunderground v.1.15,2013-08-12 13:16:00,
2013-08-12 08:22:00,65.4,64.5,29.98,NNE,25,1.0,8.0,97,0.00,,,0.00,Wunderground v.1.15,2013-08-12 13:22:00,
2013-08-12 08:28:00,65.6,64.7,29.98,NW,305,1.0,8.0,97,0.00,,,0.00,Wunderground v.1.15,2013-08-12 13:28:00,
2013-08-12 08:34:00,65.8,64.9,29.98,NNE,32,1.0,8.0,97,0.00,,,0.00,Wunderground v.1.15,2013-08-12 13:34:00,
2013-08-12 08:40:00,66.3,65.4,29.98,NE,49,1.0,1.0,97,0.00,,,0.00,Wunderground v.1.15,2013-08-12 13:40:00,
2013-08-12 08:46:00,66.8,65.9,29.98,NE,56,1.0,8.0,97,0.00,,,0.00,Wunderground v.1.15,2013-08-12 13:46:00,
2013-08-12 08:52:00,66.8,65.3,29.98,West,270,1.0,8.0,95,0.00,,,0.00,Wunderground v.1.15,2013-08-12 13:52:00,
2013-08-12 08:58:00,67.0,65.5,29.98,NNE,29,1.0,8.0,95,0.00,,,0.00,Wunderground v.1.15,2013-08-12 13:58:00,
2013-08-12 09:04:00,67.2,65.7,29.98,NE,53,1.0,8.0,95,0.00,,,0.00,Wunderground v.1.15,2013-08-12 14:04:00,
2013-08-12 09:10:00,67.5,66.0,29.98,NE,44,0.0,8.0,95,0.00,,,0.00,Wunderground v.1.15,2013-08-12 14:10:00,
2013-08-12 09:16:00,67.9,66.1,29.98,NE,43,0.0,8.0,94,0.00,,,0.00,Wunderground v.1.15,2013-08-12 14:16:00,
2013-08-12 09:22:00,68.0,65.9,29.98,WNW,300,1.0,8.0,93,0.00,,,0.00,Wunderground v.1.15,2013-08-12 14:22:00,
2013-08-12 09:28:00,68.3,66.2,29.99,NNE,30,1.0,8.0,93,0.00,,,0.00,Wunderground v.1.15,2013-08-12 14:28:00,
2013-08-12 09:34:00,68.4,65.7,29.99,WNW,294,1.0,8.0,91,0.00,,,0.00,Wunderground v.1.15,2013-08-12 14:34:00,
2013-08-12 09:40:00,68.5,65.8,29.99,NE,39,1.0,1.0,91,0.00,,,0.00,Wunderground v.1.15,2013-08-12 14:40:00,
2013-08-12 09:46:00,68.8,66.1,29.99,North,354,1.0,8.0,91,0.00,,,0.00,Wunderground v.1.15,2013-08-12 14:46:00,
2013-08-12 09:52:00,69.0,65.9,29.99,NNW,336,1.0,8.0,90,0.00,,,0.00,Wunderground v.1.15,2013-08-12 14:52:00,
2013-08-12 09:58:00,69.4,66.7,30.00,WNW,284,1.0,8.0,91,0.00,,,0.00,Wunderground v.1.15,2013-08-12 14:58:00,
2013-08-12 10:04:00,69.7,66.3,30.00,West,273,1.0,8.0,89,0.00,,,0.00,Wunderground v.1.15,2013-08-12 15:04:00,
2013-08-12 10:10:00,69.8,66.4,30.00,NNW,348,1.0,8.0,89,0.00,,,0.00,Wunderground v.1.15,2013-08-12 15:10:00,
2013-08-12 10:16:00,70.1,66.4,30.00,West,264,1.0,8.0,88,0.00,,,0.00,Wunderground v.1.15,2013-08-12 15:16:00,
2013-08-12 10:22:00,70.7,67.3,30.00,WNW,300,1.0,8.0,89,0.00,,,0.00,Wunderground v.1.15,2013-08-12 15:22:00,
2013-08-12 10:28:00,70.7,66.6,30.00,West,271,1.0,8.0,87,0.00,,,0.00,Wunderground v.1.15,2013-08-12 15:28:00,
2013-08-12 10:34:00,70.7,66.6,30.00,NE,49,1.0,8.0,87,0.00,,,0.00,Wunderground v.1.15,2013-08-12 15:34:00,
2013-08-12 10:40:00,71.0,66.9,30.00,WNW,287,1.0,1.0,87,0.00,,,0.00,Wunderground v.1.15,2013-08-12 15:40:00,
2013-08-12 10:46:00,71.0,66.9,30.00,West,272,1.0,8.0,87,0.00,,,0.00,Wunderground v.1.15,2013-08-12 15:46:00,
2013-08-12 10:52:00,71.6,67.5,30.00,NE,49,1.0,8.0,87,0.00,,,0.00,Wunderground v.1.15,2013-08-12 15:52:00,
2013-08-12 10:58:00,72.1,67.3,30.00,NNE,32,1.0,8.0,85,0.00,,,0.00,Wunderground v.1.15,2013-08-12 15:58:00,
2013-08-12 11:04:00,72.7,67.6,30.00,WSW,246,1.0,8.0,84,0.00,,,0.00,Wunderground v.1.15,2013-08-12 16:04:00,
2013-08-12 11:10:00,72.8,67.7,30.00,WNW,296,1.0,1.0,84,0.00,,,0.00,Wunderground v.1.15,2013-08-12 16:10:00,
2013-08-12 11:16:00,72.9,67.4,30.00,NE,37,1.0,8.0,83,0.00,,,0.00,Wunderground v.1.15,2013-08-12 16:16:00,
2013-08-12 11:22:00,73.4,67.9,30.00,NNE,32,2.0,8.0,83,0.00,,,0.00,Wunderground v.1.15,2013-08-12 16:22:00,
2013-08-12 11:28:00,73.8,68.0,30.00,SE,141,2.0,8.0,82,0.00,,,0.00,Wunderground v.1.15,2013-08-12 16:28:00,
2013-08-12 11:34:00,74.2,67.3,29.99,North,1,2.0,8.0,79,0.00,,,0.00,Wunderground v.1.15,2013-08-12 16:34:00,
2013-08-12 11:40:00,74.4,67.8,29.99,West,276,2.0,2.0,80,0.00,,,0.00,Wunderground v.1.15,2013-08-12 16:40:00,
2013-08-12 11:46:00,74.6,66.9,29.99,NNW,331,2.0,8.0,77,0.00,,,0.00,Wunderground v.1.15,2013-08-12 16:46:00,
2013-08-12 11:52:00,74.8,67.5,29.99,NW,308,2.0,8.0,78,0.00,,,0.00,Wunderground v.1.15,2013-08-12 16:52:00,
2013-08-12 11:58:00,75.0,66.5,30.00,NNE,32,3.0,8.0,75,0.00,,,0.00,Wunderground v.1.15,2013-08-12 16:58:00,
2013-08-12 12:04:00,74.9,66.1,29.99,ENE,59,3.0,8.0,74,0.00,,,0.00,Wunderground v.1.15,2013-08-12 17:04:00,
2013-08-12 12:10:00,75.0,66.1,29.99,ENE,58,1.0,8.0,74,0.00,,,0.00,Wunderground v.1.15,2013-08-12 17:10:00,
2013-08-12 12:16:00,75.7,66.4,29.99,NNW,342,2.0,8.0,73,0.00,,,0.00,Wunderground v.1.15,2013-08-12 17:16:00,
2013-08-12 12:22:00,75.4,64.5,29.99,NE,56,2.0,8.0,69,0.00,,,0.00,Wunderground v.1.15,2013-08-12 17:22:00,
2013-08-12 12:28:00,76.1,64.8,29.99,West,267,2.0,8.0,68,0.00,,,0.00,Wunderground v.1.15,2013-08-12 17:28:00,
2013-08-12 12:34:00,76.7,64.5,29.98,SE,146,2.0,8.0,66,0.00,,,0.00,Wunderground v.1.15,2013-08-12 17:34:00,
2013-08-12 12:40:00,76.7,63.6,29.98,WNW,295,3.0,3.0,64,0.00,,,0.00,Wunderground v.1.15,2013-08-12 17:40:00,
2013-08-12 12:46:00,76.8,63.7,29.98,North,1,2.0,8.0,64,0.00,,,0.00,Wunderground v.1.15,2013-08-12 17:46:00,
2013-08-12 12:52:00,77.3,63.7,29.98,NE,49,2.0,3.0,63,0.00,,,0.00,Wunderground v.1.15,2013-08-12 17:52:00,
2013-08-12 12:58:00,77.3,63.7,29.98,ESE,108,2.0,8.0,63,0.00,,,0.00,Wunderground v.1.15,2013-08-12 17:58:00,
2013-08-12 13:04:00,77.3,64.2,29.98,ENE,77,2.0,8.0,64,0.00,,,0.00,Wunderground v.1.15,2013-08-12 18:04:00,
2013-08-12 13:10:00,77.9,63.8,29.97,NNE,29,2.0,8.0,62,0.00,,,0.00,Wunderground v.1.15,2013-08-12 18:10:00,
2013-08-12 13:16:00,78.2,63.6,29.98,WNW,302,2.0,8.0,61,0.00,,,0.00,Wunderground v.1.15,2013-08-12 18:16:00,
2013-08-12 13:22:00,78.8,64.2,29.97,NNE,20,1.0,8.0,61,0.00,,,0.00,Wunderground v.1.15,2013-08-12 18:22:00,
2013-08-12 13:28:00,79.2,65.5,29.98,NW,322,2.0,8.0,63,0.00,,,0.00,Wunderground v.1.15,2013-08-12 18:28:00,
2013-08-12 13:34:00,79.1,60.0,29.97,WNW,302,3.0,9.0,52,0.00,,,0.00,Wunderground v.1.15,2013-08-12 18:34:00,
2013-08-12 13:40:00,79.3,61.2,29.97,ESE,113,3.0,3.0,54,0.00,,,0.00,Wunderground v.1.15,2013-08-12 18:40:00,
2013-08-12 13:46:00,79.0,60.9,29.97,NW,308,3.0,8.0,54,0.00,,,0.00,Wunderground v.1.15,2013-08-12 18:46:00,
2013-08-12 13:52:00,78.7,60.7,29.97,NNW,343,2.0,8.0,54,0.00,,,0.00,Wunderground v.1.15,2013-08-12 18:52:00,
2013-08-12 13:58:00,79.5,60.3,29.97,NNE,28,2.0,8.0,52,0.00,,,0.00,Wunderground v.1.15,2013-08-12 18:58:00,
2013-08-12 14:04:00,79.6,60.4,29.97,ENE,73,3.0,9.0,52,0.00,,,0.00,Wunderground v.1.15,2013-08-12 19:04:00,
2013-08-12 14:10:00,79.5,59.2,29.97,WNW,300,3.0,8.0,50,0.00,,,0.00,Wunderground v.1.15,2013-08-12 19:10:00,
2013-08-12 14:16:00,79.9,59.0,29.97,NW,314,2.0,8.0,49,0.00,,,0.00,Wunderground v.1.15,2013-08-12 19:16:00,
2013-08-12 14:22:00,79.8,60.1,29.97,NW,321,2.0,8.0,51,0.00,,,0.00,Wunderground v.1.15,2013-08-12 19:22:00,
2013-08-12 14:28:00,79.8,60.1,29.97,NNW,344,2.0,8.0,51,0.00,,,0.00,Wunderground v.1.15,2013-08-12 19:28:00,
2013-08-12 14:34:00,79.7,59.4,29.97,WSW,249,2.0,9.0,50,0.00,,,0.00,Wunderground v.1.15,2013-08-12 19:34:00,
2013-08-12 14:40:00,79.6,59.3,29.97,WNW,302,2.0,8.0,50,0.00,,,0.00,Wunderground v.1.15,2013-08-12 19:40:00,
2013-08-12 14:46:00,79.8,60.6,29.96,NW,325,2.0,8.0,52,0.00,,,0.00,Wunderground v.1.15,2013-08-12 19:46:00,
2013-08-12 14:52:00,80.5,60.7,29.96,WNW,290,2.0,8.0,51,0.00,,,0.00,Wunderground v.1.15,2013-08-12 19:52:00,
2013-08-12 14:58:00,79.9,59.0,29.96,NW,305,3.0,8.0,49,0.00,,,0.00,Wunderground v.1.15,2013-08-12 19:58:00,
2013-08-12 15:04:00,80.0,57.4,29.97,WNW,290,3.0,8.0,46,0.00,,,0.00,Wunderground v.1.15,2013-08-12 20:04:00,
2013-08-12 15:10:00,80.1,58.6,29.96,WNW,297,2.0,8.0,48,0.00,,,0.00,Wunderground v.1.15,2013-08-12 20:10:00,
2013-08-12 15:16:00,80.0,58.5,29.96,SW,236,2.0,8.0,48,0.00,,,0.00,Wunderground v.1.15,2013-08-12 20:16:00,
2013-08-12 15:22:00,79.7,58.3,29.96,WNW,294,3.0,8.0,48,0.00,,,0.00,Wunderground v.1.15,2013-08-12 20:22:00,
2013-08-12 15:28:00,80.0,59.7,29.96,SW,217,3.0,8.0,50,0.00,,,0.00,Wunderground v.1.15,2013-08-12 20:28:00,
2013-08-12 15:34:00,80.3,60.0,29.96,WNW,300,2.0,7.0,50,0.00,,,0.00,Wunderground v.1.15,2013-08-12 20:34:00,
2013-08-12 15:40:00,80.3,59.4,29.96,NW,307,2.0,2.0,49,0.00,,,0.00,Wunderground v.1.15,2013-08-12 20:40:00,
2013-08-12 15:46:00,79.9,57.3,29.96,NNE,21,2.0,8.0,46,0.00,,,0.00,Wunderground v.1.15,2013-08-12 20:46:00,
2013-08-12 15:52:00,79.9,57.9,29.96,NNE,32,2.0,8.0,47,0.00,,,0.00,Wunderground v.1.15,2013-08-12 20:52:00,
2013-08-12 15:58:00,79.8,58.4,29.95,WNW,300,2.0,8.0,48,0.00,,,0.00,Wunderground v.1.15,2013-08-12 20:58:00,
2013-08-12 16:04:00,79.8,58.4,29.95,ENE,61,2.0,8.0,48,0.00,,,0.00,Wunderground v.1.15,2013-08-12 21:04:00,
2013-08-12 16:10:00,79.6,57.6,29.95,WSW,250,3.0,8.0,47,0.00,,,0.00,Wunderground v.1.15,2013-08-12 21:10:00,
2013-08-12 16:16:00,79.7,57.1,29.95,ENE,68,2.0,8.0,46,0.00,,,0.00,Wunderground v.1.15,2013-08-12 21:16:00,
2013-08-12 16:22:00,79.6,58.8,29.95,ESE,103,2.0,8.0,49,0.00,,,0.00,Wunderground v.1.15,2013-08-12 21:22:00,
2013-08-12 16:28:00,79.7,58.8,29.95,NE,47,2.0,8.0,49,0.00,,,0.00,Wunderground v.1.15,2013-08-12 21:28:00,
2013-08-12 16:34:00,79.8,57.8,29.95,NW,319,3.0,8.0,47,0.00,,,0.00,Wunderground v.1.15,2013-08-12 21:34:00,
2013-08-12 16:40:00,79.6,58.2,29.95,ENE,69,3.0,3.0,48,0.00,,,0.00,Wunderground v.1.15,2013-08-12 21:40:00,
2013-08-12 16:46:00,79.6,58.2,29.95,NE,51,3.0,8.0,48,0.00,,,0.00,Wunderground v.1.15,2013-08-12 21:46:00,
2013-08-12 16:52:00,79.2,57.8,29.95,SW,225,3.0,8.0,48,0.00,,,0.00,Wunderground v.1.15,2013-08-12 21:52:00,
2013-08-12 16:58:00,79.7,58.8,29.95,West,273,2.0,8.0,49,0.00,,,0.00,Wunderground v.1.15,2013-08-12 21:58:00,
2013-08-12 17:04:00,79.8,58.9,29.95,NE,49,2.0,8.0,49,0.00,,,0.00,Wunderground v.1.15,2013-08-12 22:04:00,
2013-08-12 17:10:00,78.9,59.2,29.95,ENE,70,2.0,2.0,51,0.00,,,0.00,Wunderground v.1.15,2013-08-12 22:10:00,
2013-08-12 17:16:00,79.6,58.8,29.96,ENE,59,2.0,8.0,49,0.00,,,0.00,Wunderground v.1.15,2013-08-12 22:16:00,
2013-08-12 17:22:00,79.1,58.3,29.96,NE,54,2.0,8.0,49,0.00,,,0.00,Wunderground v.1.15,2013-08-12 22:22:00,
2013-08-12 17:28:00,78.7,57.9,29.96,NE,35,2.0,8.0,49,0.00,,,0.00,Wunderground v.1.15,2013-08-12 22:28:00,
2013-08-12 17:34:00,79.0,58.2,29.96,NNW,342,2.0,8.0,49,0.00,,,0.00,Wunderground v.1.15,2013-08-12 22:34:00,
2013-08-12 17:40:00,79.1,58.3,29.96,NNW,334,2.0,8.0,49,0.00,,,0.00,Wunderground v.1.15,2013-08-12 22:40:00,
2013-08-12 17:46:00,78.9,58.1,29.96,NNE,12,2.0,8.0,49,0.00,,,0.00,Wunderground v.1.15,2013-08-12 22:46:00,
2013-08-12 17:52:00,78.6,57.3,29.96,ENE,58,3.0,8.0,48,0.00,,,0.00,Wunderground v.1.15,2013-08-12 22:52:00,
2013-08-12 17:58:00,78.3,56.4,29.96,North,11,3.0,8.0,47,0.00,,,0.00,Wunderground v.1.15,2013-08-12 22:58:00,
2013-08-12 18:04:00,78.1,56.8,29.96,NE,47,3.0,9.0,48,0.00,,,0.00,Wunderground v.1.15,2013-08-12 23:04:00,
2013-08-12 18:10:00,77.8,56.5,29.96,NE,43,3.0,8.0,48,0.00,,,0.00,Wunderground v.1.15,2013-08-12 23:10:00,
2013-08-12 18:16:00,77.8,57.7,29.96,SW,214,2.0,8.0,50,0.00,,,0.00,Wunderground v.1.15,2013-08-12 23:16:00,
2013-08-12 18:22:00,77.9,57.8,29.96,North,5,2.0,8.0,50,0.00,,,0.00,Wunderground v.1.15,2013-08-12 23:22:00,
2013-08-12 18:28:00,77.9,57.2,29.96,ESE,105,2.0,8.0,49,0.00,,,0.00,Wunderground v.1.15,2013-08-12 23:28:00,
2013-08-12 18:34:00,78.0,57.3,29.96,North,1,2.0,8.0,49,0.00,,,0.00,Wunderground v.1.15,2013-08-12 23:34:00,
2013-08-12 18:40:00,77.6,56.4,29.96,East,79,2.0,8.0,48,0.00,,,0.00,Wunderground v.1.15,2013-08-12 23:40:00,
2013-08-12 18:46:00,77.3,56.6,29.96,NE,39,2.0,8.0,49,0.00,,,0.00,Wunderground v.1.15,2013-08-12 23:46:00,
2013-08-12 18:52:00,77.2,56.6,29.96,ENE,63,2.0,3.0,49,0.00,,,0.00,Wunderground v.1.15,2013-08-12 23:52:00,
2013-08-12 18:58:00,76.8,56.8,29.96,ENE,60,2.0,8.0,50,0.00,,,0.00,Wunderground v.1.15,2013-08-12 23:58:00,
2013-08-12 19:04:00,76.5,57.6,29.96,NNW,330,2.0,8.0,52,0.00,,,0.00,Wunderground v.1.15,2013-08-13 00:04:00,
2013-08-12 19:10:00,76.2,56.7,29.96,NW,326,2.0,8.0,51,0.00,,,0.00,Wunderground v.1.15,2013-08-13 00:10:00,
2013-08-12 19:16:00,76.0,57.1,29.96,ENE,59,1.0,8.0,52,0.00,,,0.00,Wunderground v.1.15,2013-08-13 00:16:00,
2013-08-12 19:22:00,75.6,56.7,29.96,NW,311,1.0,8.0,52,0.00,,,0.00,Wunderground v.1.15,2013-08-13 00:22:00,
2013-08-12 19:28:00,75.4,57.1,29.96,NW,312,1.0,8.0,53,0.00,,,0.00,Wunderground v.1.15,2013-08-13 00:28:00,
2013-08-12 19:34:00,75.2,56.9,29.97,ENE,60,0.0,8.0,53,0.00,,,0.00,Wunderground v.1.15,2013-08-13 00:34:00,
2013-08-12 19:40:00,74.9,57.1,29.97,NE,43,0.0,8.0,54,0.00,,,0.00,Wunderground v.1.15,2013-08-13 00:40:00,
2013-08-12 19:46:00,74.5,57.8,29.97,NW,308,0.0,8.0,56,0.00,,,0.00,Wunderground v.1.15,2013-08-13 00:46:00,
2013-08-12 19:52:00,74.1,57.4,29.97,NE,43,0.0,8.0,56,0.00,,,0.00,Wunderground v.1.15,2013-08-13 00:52:00,
2013-08-12 19:58:00,73.6,57.4,29.97,SW,236,0.0,8.0,57,0.00,,,0.00,Wunderground v.1.15,2013-08-13 00:58:00,
2013-08-12 20:04:00,73.0,57.8,29.97,West,274,0.0,8.0,59,0.00,,,0.00,Wunderground v.1.15,2013-08-13 01:04:00,
2013-08-12 20:14:00,72.2,58.0,29.97,ENE,71,0.0,8.0,61,0.00,,,0.00,Wunderground v.1.15,2013-08-13 01:14:00,
2013-08-12 20:20:00,71.7,57.5,29.97,SE,134,0.0,8.0,61,0.00,,,0.00,Wunderground v.1.15,2013-08-13 01:20:00,
2013-08-12 20:26:00,71.4,57.2,29.97,NW,315,0.0,8.0,61,0.00,,,0.00,Wunderground v.1.15,2013-08-13 01:26:00,
2013-08-12 20:32:00,71.0,57.8,29.97,West,263,0.0,8.0,63,0.00,,,0.00,Wunderground v.1.15,2013-08-13 01:32:00,
2013-08-12 20:38:00,70.7,57.9,29.98,West,262,0.0,8.0,64,0.00,,,0.00,Wunderground v.1.15,2013-08-13 01:38:00,
2013-08-12 20:44:00,70.4,58.1,29.98,West,263,0.0,8.0,65,0.00,,,0.00,Wunderground v.1.15,2013-08-13 01:44:00,
2013-08-12 20:50:00,69.9,58.4,29.98,West,263,0.0,8.0,67,0.00,,,0.00,Wunderground v.1.15,2013-08-13 01:50:00,
2013-08-12 20:56:00,69.5,58.5,29.98,West,263,0.0,8.0,68,0.00,,,0.00,Wunderground v.1.15,2013-08-13 01:56:00,
2013-08-12 21:02:00,69.1,58.5,29.98,West,263,0.0,8.0,69,0.00,,,0.00,Wunderground v.1.15,2013-08-13 02:02:00,
2013-08-12 21:08:00,68.8,58.2,29.99,West,263,0.0,8.0,69,0.00,,,0.00,Wunderground v.1.15,2013-08-13 02:08:00,
2013-08-12 21:14:00,68.8,58.6,29.99,WSW,256,0.0,8.0,70,0.00,,,0.00,Wunderground v.1.15,2013-08-13 02:14:00,
2013-08-12 21:20:00,68.5,58.3,29.99,NNE,26,0.0,8.0,70,0.00,,,0.00,Wunderground v.1.15,2013-08-13 02:20:00,
2013-08-12 21:26:00,68.4,58.6,29.99,WNW,288,0.0,8.0,71,0.00,,,0.00,Wunderground v.1.15,2013-08-13 02:26:00,
2013-08-12 21:32:00,68.1,58.7,29.99,WNW,302,0.0,8.0,72,0.00,,,0.00,Wunderground v.1.15,2013-08-13 02:32:00,
2013-08-12 21:38:00,67.9,58.5,30.00,WNW,293,0.0,8.0,72,0.00,,,0.00,Wunderground v.1.15,2013-08-13 02:38:00,
2013-08-12 21:44:00,67.7,58.7,30.00,ENE,68,0.0,8.0,73,0.00,,,0.00,Wunderground v.1.15,2013-08-13 02:44:00,
2013-08-12 21:50:00,67.5,58.9,30.00,North,8,0.0,8.0,74,0.00,,,0.00,Wunderground v.1.15,2013-08-13 02:50:00,
2013-08-12 21:56:00,67.2,58.6,30.00,North,9,0.0,8.0,74,0.00,,,0.00,Wunderground v.1.15,2013-08-13 02:56:00,
2013-08-12 22:02:00,66.9,58.7,30.00,North,9,0.0,8.0,75,0.00,,,0.00,Wunderground v.1.15,2013-08-13 03:02:00,
2013-08-12 22:08:00,66.6,58.8,30.00,NW,311,0.0,8.0,76,0.00,,,0.00,Wunderground v.1.15,2013-08-13 03:08:00,
2013-08-12 22:14:00,66.3,58.9,30.00,NW,309,0.0,8.0,77,0.00,,,0.00,Wunderground v.1.15,2013-08-13 03:14:00,
2013-08-12 22:20:00,66.1,59.0,30.01,NNW,347,0.0,8.0,78,0.00,,,0.00,Wunderground v.1.15,2013-08-13 03:20:00,
2013-08-12 22:26:00,65.9,58.8,30.00,WNW,302,0.0,8.0,78,0.00,,,0.00,Wunderground v.1.15,2013-08-13 03:26:00,
2013-08-12 22:32:00,65.8,58.7,30.01,NW,314,0.0,8.0,78,0.00,,,0.00,Wunderground v.1.15,2013-08-13 03:32:00,
2013-08-12 22:38:00,65.6,58.9,30.01,NW,312,0.0,8.0,79,0.00,,,0.00,Wunderground v.1.15,2013-08-13 03:38:00,
2013-08-12 22:44:00,65.5,58.8,30.01,NW,312,0.0,8.0,79,0.00,,,0.00,Wunderground v.1.15,2013-08-13 03:44:00,
2013-08-12 22:54:00,65.1,58.8,30.01,NW,312,0.0,8.0,80,0.00,,,0.00,Wunderground v.1.15,2013-08-13 03:54:00,
2013-08-12 23:00:00,64.8,58.8,30.01,NW,310,0.0,8.0,81,0.00,,,0.00,Wunderground v.1.15,2013-08-13 04:00:00,
2013-08-12 23:02:00,64.7,58.7,30.01,NW,311,0.0,8.0,81,0.00,,,0.00,Wunderground v.1.15,2013-08-13 04:02:00,
2013-08-12 23:04:00,64.7,58.7,30.01,NW,310,0.0,8.0,81,0.00,,,0.00,Wunderground v.1.15,2013-08-13 04:04:00,
2013-08-12 23:06:00,64.7,58.7,30.01,NW,309,0.0,8.0,81,0.00,,,0.00,Wunderground v.1.15,2013-08-13 04:06:00,
2013-08-12 23:08:00,64.6,58.6,30.01,NW,309,0.0,8.0,81,0.00,,,0.00,Wunderground v.1.15,2013-08-13 04:08:00,
2013-08-12 23:14:00,64.3,58.7,30.01,NW,309,0.0,8.0,82,0.00,,,0.00,Wunderground v.1.15,2013-08-13 04:14:00,
2013-08-12 23:20:00,64.3,58.7,30.01,West,266,0.0,8.0,82,0.00,,,0.00,Wunderground v.1.15,2013-08-13 04:20:00,
2013-08-12 23:22:00,64.2,58.6,30.01,West,266,0.0,8.0,82,0.00,,,0.00,Wunderground v.1.15,2013-08-13 04:22:00,
2013-08-12 23:28:00,64.1,58.8,30.01,West,262,0.0,8.0,83,0.00,,,0.00,Wunderground v.1.15,2013-08-13 04:28:00,
2013-08-12 23:34:00,63.9,58.6,30.01,West,268,0.0,8.0,83,0.00,,,0.00,Wunderground v.1.15,2013-08-13 04:34:00,
2013-08-12 23:40:00,63.8,58.5,30.01,West,269,0.0,8.0,83,0.00,,,0.00,Wunderground v.1.15,2013-08-13 04:40:00,
2013-08-12 23:46:00,63.7,58.4,30.01,West,269,0.0,8.0,83,0.00,,,0.00,Wunderground v.1.15,2013-08-13 04:46:00,
2013-08-12 23:52:00,63.7,58.4,30.01,WSW,257,0.0,8.0,83,0.00,,,0.00,Wunderground v.1.15,2013-08-13 04:52:00,
2013-08-12 23:58:00,63.5,58.6,30.02,WSW,257,0.0,8.0,84,0.00,,,0.00,Wunderground v.1.15,2013-08-13 04:58:00,